createdAt,value
2022-07-31T00:01:32.619Z,63.20
2022-07-31T00:03:59.310Z,63.82
2022-07-31T00:06:26.013Z,64.07
2022-07-31T00:08:52.675Z,64.20
2022-07-31T00:11:19.272Z,63.52
2022-07-31T00:13:57.420Z,64.21
2022-07-31T00:16:25.841Z,64.58
2022-07-31T00:18:52.628Z,64.94
2022-07-31T00:21:19.304Z,65.67
2022-07-31T00:23:45.822Z,66.18
2022-07-31T00:26:12.386Z,66.52
2022-07-31T00:28:38.961Z,66.68
2022-07-31T00:31:05.551Z,66.68
2022-07-31T00:33:32.065Z,67.54
2022-07-31T00:35:58.625Z,68.07
2022-07-31T00:38:27.004Z,69.05
2022-07-31T00:40:54.137Z,69.08
2022-07-31T00:43:20.735Z,70.32
2022-07-31T00:45:50.541Z,70.86
2022-07-31T00:48:22.890Z,71.64
2022-07-31T00:50:50.946Z,71.85
2022-07-31T00:53:17.517Z,72.07
2022-07-31T00:55:51.404Z,72.29
2022-07-31T00:58:19.955Z,71.79
2022-07-31T01:00:46.818Z,72.27
2022-07-31T01:03:14.340Z,73.12
2022-07-31T01:05:41.745Z,73.81
2022-07-31T01:08:08.433Z,73.54
2022-07-31T01:10:54.302Z,76.92
2022-07-31T01:13:30.287Z,76.42
2022-07-31T01:16:01.082Z,77.02
2022-07-31T01:18:31.436Z,77.80
2022-07-31T01:21:03.193Z,78.16
2022-07-31T01:23:55.197Z,79.66
2022-07-31T01:26:37.940Z,80.12
2022-07-31T01:29:25.737Z,79.79
2022-07-31T01:32:01.372Z,78.89
2022-07-31T01:34:44.761Z,80.10
2022-07-31T01:37:18.039Z,81.84
2022-07-31T01:39:50.710Z,80.49
2022-07-31T01:42:19.713Z,81.48
2022-07-31T01:44:51.539Z,82.29
2022-07-31T01:47:21.427Z,82.90
2022-07-31T01:49:51.612Z,82.82
2022-07-31T01:52:19.223Z,82.95
2022-07-31T01:54:47.608Z,83.87
2022-07-31T01:57:18.480Z,83.72
2022-07-31T01:59:47.852Z,84.89
2022-07-31T02:02:16.158Z,85.10
2022-07-31T02:04:44.157Z,85.53
2022-07-31T02:07:11.075Z,85.06
2022-07-31T02:09:37.926Z,84.46
2022-07-31T02:12:33.927Z,86.28
2022-07-31T02:15:03.706Z,86.54
2022-07-31T02:17:30.439Z,85.80
2022-07-31T02:20:00.406Z,85.19
2022-07-31T02:22:27.539Z,85.87
2022-07-31T02:24:54.048Z,87.57
2022-07-31T02:27:58.064Z,86.52
2022-07-31T02:30:10.769Z,86.70
2022-07-31T02:32:39.193Z,87.98
2022-07-31T02:35:07.824Z,88.12
2022-07-31T02:37:37.399Z,87.80
2022-07-31T02:40:05.730Z,88.29
2022-07-31T02:42:32.877Z,88.68
2022-07-31T02:45:00.857Z,89.08
2022-07-31T02:47:28.865Z,89.26
2022-07-31T02:49:57.979Z,89.26
2022-07-31T02:52:25.236Z,89.54
2022-07-31T02:54:52.833Z,89.93
2022-07-31T02:57:19.368Z,89.83
2022-07-31T02:59:45.886Z,90.32
2022-07-31T03:02:12.465Z,90.41
2022-07-31T03:04:39.031Z,90.74
2022-07-31T03:07:05.580Z,91.15
2022-07-31T03:09:32.060Z,91.44
2022-07-31T03:11:58.727Z,91.18
2022-07-31T03:14:33.132Z,91.79
2022-07-31T03:17:00.479Z,91.31
2022-07-31T03:19:28.651Z,92.32
2022-07-31T03:21:56.336Z,92.20
2022-07-31T03:24:23.005Z,91.97
2022-07-31T03:26:49.615Z,92.26
2022-07-31T03:29:36.128Z,92.31
2022-07-31T03:32:02.769Z,91.78
2022-07-31T03:34:29.432Z,91.46
2022-07-31T03:36:55.906Z,91.43
2022-07-31T03:39:22.401Z,91.52
2022-07-31T03:41:50.407Z,91.36
2022-07-31T03:44:17.029Z,91.93
2022-07-31T03:46:43.590Z,91.89
2022-07-31T03:49:10.317Z,91.86
2022-07-31T03:51:37.089Z,91.38
2022-07-31T03:54:03.920Z,91.26
2022-07-31T03:56:31.324Z,92.53
2022-07-31T03:58:57.913Z,92.99
2022-07-31T04:01:26.951Z,92.56
2022-07-31T04:04:13.621Z,92.74
2022-07-31T04:06:40.739Z,93.05
2022-07-31T04:09:18.409Z,93.51
2022-07-31T04:11:45.958Z,93.52
2022-07-31T04:14:12.574Z,93.59
2022-07-31T04:16:39.051Z,93.64
2022-07-31T04:19:05.544Z,92.64
2022-07-31T04:21:32.047Z,92.15
2022-07-31T04:23:58.736Z,91.97
2022-07-31T04:26:26.391Z,91.75
2022-07-31T04:28:53.201Z,91.46
2022-07-31T04:31:19.841Z,92.16
2022-07-31T04:33:48.927Z,92.13
2022-07-31T04:36:30.107Z,91.83
2022-07-31T04:38:58.718Z,92.17
2022-07-31T04:41:25.247Z,92.29
2022-07-31T04:43:52.196Z,92.38
2022-07-31T04:46:18.664Z,92.52
2022-07-31T04:48:45.297Z,92.73
2022-07-31T04:51:23.404Z,93.58
2022-07-31T04:53:51.168Z,92.71
2022-07-31T04:56:34.028Z,92.83
2022-07-31T04:59:06.276Z,92.77
2022-07-31T05:01:33.605Z,92.55
2022-07-31T05:04:01.801Z,93.09
2022-07-31T05:06:42.623Z,93.66
2022-07-31T05:09:18.356Z,93.27
2022-07-31T05:11:46.795Z,92.59
2022-07-31T05:14:15.147Z,90.85
2022-07-31T05:16:41.892Z,89.52
2022-07-31T05:19:14.791Z,88.65
2022-07-31T05:21:51.382Z,88.18
2022-07-31T05:24:22.681Z,87.99
2022-07-31T05:27:03.438Z,87.80
2022-07-31T05:29:30.380Z,87.36
2022-07-31T05:32:00.651Z,87.03
2022-07-31T05:34:30.061Z,86.58
2022-07-31T05:36:58.378Z,86.48
2022-07-31T05:39:25.280Z,85.88
2022-07-31T05:41:52.802Z,86.43
2022-07-31T05:44:19.538Z,85.70
2022-07-31T05:46:46.144Z,84.94
2022-07-31T05:49:12.860Z,85.01
2022-07-31T05:51:43.146Z,84.61
2022-07-31T05:54:09.734Z,84.35
2022-07-31T05:56:36.236Z,83.76
2022-07-31T05:59:02.743Z,84.65
2022-07-31T06:01:29.328Z,84.08
2022-07-31T06:03:55.905Z,83.83
2022-07-31T06:06:22.425Z,83.95
2022-07-31T06:08:49.026Z,84.50
2022-07-31T06:11:15.516Z,84.06
2022-07-31T06:13:43.382Z,84.07
2022-07-31T06:16:16.083Z,83.63
2022-07-31T06:18:42.992Z,83.92
2022-07-31T06:23:37.110Z,83.11
2022-07-31T06:26:04.086Z,82.50
2022-07-31T06:28:48.526Z,82.78
2022-07-31T06:31:20.478Z,82.83
2022-07-31T06:33:48.575Z,83.31
2022-07-31T06:36:16.346Z,82.22
2022-07-31T06:38:42.988Z,82.25
2022-07-31T06:41:09.772Z,82.92
2022-07-31T06:43:36.491Z,82.54
2022-07-31T06:46:03.080Z,82.77
2022-07-31T06:48:30.178Z,82.46
2022-07-31T06:51:29.076Z,82.24
2022-07-31T06:53:43.463Z,82.48
2022-07-31T06:56:10.147Z,83.83
2022-07-31T06:58:36.700Z,84.34
2022-07-31T07:01:03.401Z,84.67
2022-07-31T07:03:30.082Z,84.71
2022-07-31T07:05:56.744Z,85.17
2022-07-31T07:08:23.392Z,85.84
2022-07-31T07:10:49.999Z,85.25
2022-07-31T07:13:16.591Z,85.75
2022-07-31T07:15:43.197Z,86.24
2022-07-31T07:18:09.834Z,86.20
2022-07-31T07:20:36.521Z,87.48
2022-07-31T07:23:03.549Z,86.55
2022-07-31T07:25:30.250Z,86.72
2022-07-31T07:27:56.893Z,87.31
2022-07-31T07:30:23.940Z,88.00
2022-07-31T07:32:50.570Z,87.61
2022-07-31T07:35:17.094Z,86.31
2022-07-31T07:37:43.561Z,86.53
2022-07-31T07:40:10.463Z,85.76
2022-07-31T07:42:37.200Z,85.82
2022-07-31T07:45:08.138Z,82.96
2022-07-31T07:48:02.367Z,82.79
2022-07-31T07:50:22.775Z,82.69
2022-07-31T07:52:54.025Z,83.00
2022-07-31T07:55:20.597Z,83.07
2022-07-31T07:57:47.117Z,83.04
2022-07-31T08:00:14.164Z,82.42
2022-07-31T08:02:42.592Z,82.08
2022-07-31T08:05:09.907Z,82.78
2022-07-31T08:07:42.168Z,82.53
2022-07-31T08:10:10.080Z,84.21
2022-07-31T08:12:37.701Z,83.89
2022-07-31T08:15:05.668Z,83.24
2022-07-31T08:17:32.224Z,83.42
2022-07-31T08:19:58.833Z,83.40
2022-07-31T08:22:25.424Z,83.73
2022-07-31T08:24:51.996Z,82.80
2022-07-31T08:27:39.432Z,83.08
2022-07-31T08:30:07.846Z,83.90
2022-07-31T08:32:34.709Z,83.31
2022-07-31T08:35:01.289Z,84.04
2022-07-31T08:37:52.363Z,83.71
2022-07-31T08:40:14.448Z,83.16
2022-07-31T08:42:41.910Z,84.15
2022-07-31T08:45:09.339Z,83.74
2022-07-31T08:47:36.510Z,82.36
2022-07-31T08:50:05.502Z,82.10
2022-07-31T08:52:34.556Z,82.76
2022-07-31T08:55:06.170Z,83.47
2022-07-31T08:57:32.954Z,85.60
2022-07-31T08:59:59.456Z,87.14
2022-07-31T09:02:26.208Z,88.18
2022-07-31T09:04:53.063Z,88.70
2022-07-31T09:07:19.741Z,88.46
2022-07-31T09:09:51.595Z,89.82
2022-07-31T09:12:33.275Z,91.88
2022-07-31T09:15:00.973Z,91.86
2022-07-31T09:17:36.747Z,90.59
2022-07-31T09:20:05.691Z,91.07
2022-07-31T09:22:32.436Z,91.57
2022-07-31T09:25:12.118Z,91.34
2022-07-31T09:27:39.427Z,91.76
2022-07-31T09:30:07.492Z,93.05
2022-07-31T09:32:34.277Z,92.82
2022-07-31T09:35:09.893Z,94.03
2022-07-31T09:37:37.031Z,95.13
2022-07-31T09:40:04.278Z,93.89
2022-07-31T09:42:39.054Z,94.82
2022-07-31T09:45:19.775Z,94.75
2022-07-31T09:47:47.034Z,95.00
2022-07-31T09:50:14.425Z,94.09
2022-07-31T09:52:41.009Z,93.31
2022-07-31T09:55:16.313Z,94.11
2022-07-31T09:58:00.277Z,93.39
2022-07-31T10:00:27.939Z,93.21
2022-07-31T10:02:55.982Z,92.22
2022-07-31T10:05:27.560Z,92.80
2022-07-31T10:07:57.340Z,92.51
2022-07-31T10:10:24.658Z,92.23
2022-07-31T10:12:54.205Z,90.86
2022-07-31T10:15:23.044Z,92.61
2022-07-31T10:17:51.605Z,92.16
2022-07-31T10:20:22.077Z,92.50
2022-07-31T10:22:53.483Z,92.42
2022-07-31T10:25:29.161Z,91.80
2022-07-31T10:27:57.305Z,90.04
2022-07-31T10:30:28.097Z,90.08
2022-07-31T10:32:56.255Z,89.07
2022-07-31T10:35:22.945Z,88.29
2022-07-31T10:38:11.743Z,86.03
2022-07-31T10:41:03.758Z,84.55
2022-07-31T10:43:47.016Z,84.12
2022-07-31T10:46:13.519Z,83.97
2022-07-31T10:48:51.309Z,83.17
2022-07-31T10:51:18.060Z,81.40
2022-07-31T10:54:05.594Z,80.63
2022-07-31T10:56:43.537Z,80.13
2022-07-31T10:59:11.204Z,79.42
2022-07-31T11:01:52.869Z,79.15
2022-07-31T11:04:28.134Z,77.98
2022-07-31T11:06:54.774Z,78.63
2022-07-31T11:09:25.989Z,78.07
2022-07-31T11:11:53.867Z,78.93
2022-07-31T11:14:38.870Z,79.11
2022-07-31T11:17:05.926Z,78.91
2022-07-31T11:19:43.870Z,79.65
2022-07-31T11:22:30.898Z,81.35
2022-07-31T11:25:00.590Z,80.09
2022-07-31T11:27:34.459Z,81.66
2022-07-31T11:30:12.993Z,82.33
2022-07-31T11:32:41.316Z,82.45
2022-07-31T11:35:08.956Z,82.36
2022-07-31T11:37:46.527Z,83.07
2022-07-31T11:40:25.799Z,83.71
2022-07-31T11:43:23.137Z,88.14
2022-07-31T11:45:49.956Z,89.92
2022-07-31T11:48:19.097Z,91.05
2022-07-31T11:50:47.883Z,90.11
2022-07-31T11:53:14.933Z,91.63
2022-07-31T11:55:44.563Z,93.71
2022-07-31T11:58:11.313Z,93.39
2022-07-31T12:00:38.105Z,92.94
2022-07-31T12:03:05.693Z,97.80
2022-07-31T12:05:37.926Z,100.00
2022-07-31T12:08:06.707Z,100.00
2022-07-31T12:10:33.399Z,97.90
2022-07-31T12:13:00.674Z,99.89
2022-07-31T12:15:27.269Z,98.32
2022-07-31T12:18:02.302Z,92.08
2022-07-31T12:20:36.743Z,93.42
2022-07-31T12:23:06.180Z,90.36
2022-07-31T12:25:43.396Z,87.00
2022-07-31T12:28:10.308Z,84.49
2022-07-31T12:30:37.198Z,80.62
2022-07-31T12:33:12.396Z,77.65
2022-07-31T12:35:56.378Z,78.46
2022-07-31T12:38:45.166Z,78.39
2022-07-31T12:41:14.147Z,77.37
2022-07-31T12:43:51.557Z,76.86
2022-07-31T12:46:20.737Z,77.52
2022-07-31T12:48:47.261Z,75.96
2022-07-31T12:51:14.042Z,77.31
2022-07-31T12:53:40.648Z,75.77
2022-07-31T12:56:11.877Z,76.38
2022-07-31T12:58:38.523Z,76.57
2022-07-31T13:01:05.027Z,76.35
2022-07-31T13:03:45.351Z,75.24
2022-07-31T13:06:13.560Z,75.60
2022-07-31T13:08:40.172Z,75.76
2022-07-31T13:11:06.702Z,75.13
2022-07-31T13:13:33.288Z,75.62
2022-07-31T13:15:59.845Z,75.69
2022-07-31T13:18:26.457Z,74.96
2022-07-31T13:20:52.976Z,73.62
2022-07-31T13:23:21.379Z,74.80
2022-07-31T13:25:48.000Z,74.55
2022-07-31T13:28:14.524Z,73.92
2022-07-31T13:30:41.587Z,74.42
2022-07-31T13:33:08.193Z,74.98
2022-07-31T13:35:34.774Z,75.83
2022-07-31T13:38:01.331Z,75.26
2022-07-31T13:40:46.382Z,75.56
2022-07-31T13:43:13.156Z,75.68
2022-07-31T13:45:39.690Z,76.04
2022-07-31T13:48:09.318Z,76.50
2022-07-31T13:50:37.606Z,76.49
2022-07-31T13:53:05.002Z,76.15
2022-07-31T13:55:32.245Z,76.63
2022-07-31T13:57:59.448Z,76.41
2022-07-31T14:00:28.455Z,75.54
2022-07-31T14:02:55.048Z,76.66
2022-07-31T14:05:21.617Z,76.28
2022-07-31T14:07:52.039Z,75.06
2022-07-31T14:10:20.782Z,74.46
2022-07-31T14:12:48.511Z,74.49
2022-07-31T14:15:15.217Z,74.71
2022-07-31T14:17:41.842Z,75.25
2022-07-31T14:20:09.355Z,74.81
2022-07-31T14:22:35.973Z,73.97
2022-07-31T14:25:02.557Z,72.24
2022-07-31T14:27:29.140Z,71.15
2022-07-31T14:29:55.772Z,71.80
2022-07-31T14:32:22.744Z,71.72
2022-07-31T14:34:50.258Z,71.87
2022-07-31T14:37:17.135Z,72.76
2022-07-31T14:39:43.836Z,72.67
2022-07-31T14:42:11.383Z,72.56
2022-07-31T14:44:41.577Z,72.43
2022-07-31T14:47:09.280Z,74.61
2022-07-31T14:50:08.977Z,84.43
2022-07-31T14:52:22.630Z,87.28
2022-07-31T14:54:49.190Z,86.23
2022-07-31T14:57:22.255Z,87.22
2022-07-31T14:59:50.106Z,84.07
2022-07-31T15:02:21.783Z,83.96
2022-07-31T15:04:49.136Z,78.00
2022-07-31T15:10:06.579Z,72.14
2022-07-31T15:12:33.688Z,73.07
2022-07-31T15:15:00.383Z,71.50
2022-07-31T15:17:27.193Z,69.07
2022-07-31T15:19:53.814Z,67.98
2022-07-31T15:22:20.326Z,67.48
2022-07-31T15:24:48.892Z,66.50
2022-07-31T15:27:21.741Z,66.11
2022-07-31T15:30:05.823Z,67.20
2022-07-31T15:32:37.608Z,67.12
2022-07-31T15:35:06.268Z,67.01
2022-07-31T15:37:37.293Z,67.13
2022-07-31T15:40:06.131Z,67.38
2022-07-31T15:42:33.426Z,67.15
2022-07-31T15:45:00.113Z,67.61
2022-07-31T15:47:26.660Z,68.39
2022-07-31T15:49:53.292Z,72.66
2022-07-31T15:52:20.007Z,77.58
2022-07-31T15:54:47.053Z,83.72
2022-07-31T15:57:14.642Z,93.31
2022-07-31T15:59:41.669Z,88.53
2022-07-31T17:13:23.078Z,100.00
2022-07-31T17:15:49.684Z,100.00
2022-07-31T17:18:16.180Z,100.00
2022-07-31T17:20:46.844Z,100.00
2022-07-31T17:23:13.358Z,100.00
2022-07-31T17:25:40.020Z,100.00
2022-07-31T17:28:10.135Z,100.00
2022-07-31T17:30:39.113Z,100.00
2022-07-31T17:33:05.626Z,100.00
2022-07-31T17:35:32.166Z,100.00
2022-07-31T17:37:58.635Z,100.00
2022-07-31T17:40:42.451Z,100.00
2022-07-31T17:43:09.813Z,100.00
2022-07-31T17:45:59.439Z,100.00
2022-07-31T17:48:25.007Z,100.00
2022-07-31T17:50:54.240Z,100.00
2022-07-31T17:53:21.048Z,100.00
2022-07-31T17:55:49.463Z,100.00
2022-07-31T17:58:16.781Z,100.00
2022-07-31T18:00:43.453Z,100.00
2022-07-31T18:03:10.210Z,100.00
2022-07-31T18:05:37.691Z,100.00
2022-07-31T18:08:04.513Z,100.00
2022-07-31T18:10:52.259Z,100.00
2022-07-31T18:13:17.579Z,100.00
2022-07-31T18:15:44.232Z,100.00
2022-07-31T18:18:10.851Z,100.00
2022-07-31T18:20:38.139Z,100.00
2022-07-31T18:23:04.747Z,100.00
2022-07-31T18:25:36.911Z,100.00
2022-07-31T18:28:03.501Z,100.00
2022-07-31T18:30:30.464Z,100.00
2022-07-31T18:33:00.363Z,100.00
2022-07-31T18:35:26.909Z,100.00
2022-07-31T18:37:53.484Z,100.00
2022-07-31T18:40:19.985Z,100.00
2022-07-31T18:42:46.484Z,100.00
2022-07-31T18:45:13.055Z,100.00
2022-07-31T18:47:39.560Z,100.00
2022-07-31T18:51:02.968Z,100.00
2022-07-31T18:52:52.919Z,100.00
2022-07-31T18:55:19.494Z,100.00
2022-07-31T18:57:46.015Z,100.00
2022-07-31T19:00:12.894Z,100.00
2022-07-31T19:02:39.428Z,100.00
2022-07-31T19:05:07.437Z,100.00
2022-07-31T19:07:40.374Z,100.00
2022-07-31T19:10:07.878Z,100.00
2022-07-31T19:12:35.464Z,100.00
2022-07-31T19:15:03.271Z,100.00
2022-07-31T19:17:44.660Z,100.00
2022-07-31T19:20:12.594Z,100.00
2022-07-31T19:22:58.967Z,100.00
2022-07-31T19:25:25.679Z,100.00
2022-07-31T19:27:52.157Z,100.00
2022-07-31T19:30:18.702Z,100.00
2022-07-31T19:32:45.223Z,100.00
2022-07-31T19:35:23.784Z,100.00
2022-07-31T19:38:01.176Z,100.00
2022-07-31T19:40:28.838Z,100.00
2022-07-31T19:42:59.574Z,100.00
2022-07-31T19:45:26.759Z,100.00
2022-07-31T19:47:53.589Z,100.00
2022-07-31T19:50:20.107Z,100.00
2022-07-31T19:52:47.836Z,100.00
2022-07-31T19:55:15.171Z,100.00
2022-07-31T19:57:42.810Z,100.00
2022-07-31T20:00:11.779Z,100.00
2022-07-31T20:02:39.866Z,100.00
2022-07-31T20:05:07.292Z,100.00
2022-07-31T20:07:34.067Z,100.00
2022-07-31T20:10:01.815Z,100.00
2022-07-31T20:12:28.350Z,100.00
2022-07-31T20:14:54.842Z,100.00
2022-07-31T20:17:21.341Z,100.00
2022-07-31T20:20:02.998Z,100.00
2022-07-31T20:22:34.368Z,100.00
2022-07-31T20:25:00.946Z,100.00
2022-07-31T20:27:38.437Z,100.00
2022-07-31T20:30:08.975Z,100.00
2022-07-31T20:32:38.115Z,100.00
2022-07-31T20:35:32.816Z,100.00
2022-07-31T20:38:02.285Z,100.00
2022-07-31T20:40:28.899Z,100.00
2022-07-31T20:42:55.490Z,100.00
2022-07-31T20:45:23.292Z,100.00
2022-07-31T20:47:52.008Z,100.00
2022-07-31T20:50:19.267Z,100.00
2022-07-31T20:52:48.512Z,100.00
2022-07-31T20:55:15.260Z,100.00
2022-07-31T20:57:42.385Z,100.00
2022-07-31T21:00:09.656Z,100.00
2022-07-31T21:02:36.167Z,100.00
2022-07-31T21:05:05.724Z,100.00
2022-07-31T21:07:32.201Z,100.00
2022-07-31T21:09:58.678Z,100.00
2022-07-31T21:12:29.518Z,100.00
2022-07-31T21:14:56.253Z,100.00
2022-07-31T21:17:22.721Z,100.00
2022-07-31T21:19:49.201Z,100.00
2022-07-31T21:22:15.678Z,100.00
2022-07-31T21:24:42.514Z,100.00
2022-07-31T21:27:12.231Z,100.00
2022-07-31T21:29:38.982Z,100.00
2022-07-31T21:32:06.473Z,100.00
2022-07-31T21:34:33.629Z,100.00
2022-07-31T21:37:01.335Z,100.00
2022-07-31T21:39:28.895Z,100.00
2022-07-31T21:41:55.723Z,100.00
2022-07-31T21:44:22.341Z,100.00
2022-07-31T21:46:53.862Z,100.00
2022-07-31T21:49:22.589Z,100.00
2022-07-31T21:51:49.443Z,100.00
2022-07-31T21:54:17.858Z,100.00
2022-07-31T21:56:44.468Z,100.00
2022-07-31T21:59:12.831Z,100.00
2022-07-31T22:01:39.439Z,100.00
2022-07-31T22:04:34.361Z,100.00
2022-07-31T22:07:20.082Z,100.00
2022-07-31T22:09:46.544Z,100.00
2022-07-31T22:12:13.127Z,100.00
2022-07-31T22:14:39.576Z,100.00
2022-07-31T22:17:09.708Z,100.00
2022-07-31T22:19:44.315Z,100.00
2022-07-31T22:22:14.361Z,100.00
2022-07-31T22:24:41.189Z,100.00
2022-07-31T22:27:26.467Z,100.00
2022-07-31T22:29:53.364Z,100.00
2022-07-31T22:32:19.838Z,100.00
2022-07-31T22:34:46.473Z,100.00
2022-07-31T22:37:13.431Z,100.00
2022-07-31T22:39:40.154Z,100.00
2022-07-31T22:42:07.207Z,100.00
2022-07-31T22:44:36.992Z,100.00
2022-07-31T22:47:03.773Z,100.00
2022-07-31T22:49:30.485Z,100.00
2022-07-31T22:51:57.138Z,100.00
2022-07-31T22:54:23.714Z,100.00
2022-07-31T22:56:50.253Z,100.00
2022-07-31T22:59:16.851Z,100.00
2022-07-31T23:01:43.346Z,100.00
2022-07-31T23:04:09.833Z,100.00
2022-07-31T23:06:36.367Z,100.00
2022-07-31T23:09:03.253Z,100.00
2022-07-31T23:11:30.071Z,100.00
2022-07-31T23:13:56.636Z,100.00
2022-07-31T23:16:23.152Z,100.00
2022-07-31T23:18:51.384Z,100.00
2022-07-31T23:21:18.863Z,100.00
2022-07-31T23:23:48.068Z,100.00
2022-07-31T23:26:16.511Z,100.00
2022-07-31T23:28:43.025Z,100.00
2022-07-31T23:31:09.571Z,100.00
2022-07-31T23:33:36.116Z,100.00
2022-07-31T23:36:02.829Z,100.00
2022-07-31T23:38:29.389Z,100.00
2022-07-31T23:40:56.438Z,100.00
2022-07-31T23:43:23.905Z,100.00
2022-07-31T23:45:50.949Z,100.00
2022-07-31T23:48:23.158Z,100.00
2022-07-31T23:50:55.946Z,100.00
2022-07-31T23:53:22.436Z,100.00
2022-07-31T23:55:48.987Z,100.00
2022-07-31T23:58:15.548Z,100.00
